sensor_id;sensor_type;location;lat;lon;timestamp;temperature;humidity
25937;DHT22;13733;51.178;4.450;2024-02-23T00:00:35;5.80;99.40
25937;DHT22;13733;51.178;4.450;2024-02-23T00:03:00;5.80;99.40
25937;DHT22;13733;51.178;4.450;2024-02-23T00:05:26;5.80;99.30
25937;DHT22;13733;51.178;4.450;2024-02-23T00:07:52;5.80;98.90
25937;DHT22;13733;51.178;4.450;2024-02-23T00:10:17;5.80;98.00
25937;DHT22;13733;51.178;4.450;2024-02-23T00:12:44;5.90;96.30
25937;DHT22;13733;51.178;4.450;2024-02-23T00:15:10;5.90;96.70
25937;DHT22;13733;51.178;4.450;2024-02-23T00:17:36;5.90;96.20
25937;DHT22;13733;51.178;4.450;2024-02-23T00:20:02;5.80;97.00
25937;DHT22;13733;51.178;4.450;2024-02-23T00:22:27;5.70;98.30
25937;DHT22;13733;51.178;4.450;2024-02-23T00:24:53;5.80;97.90
25937;DHT22;13733;51.178;4.450;2024-02-23T00:27:19;5.80;97.80
25937;DHT22;13733;51.178;4.450;2024-02-23T00:29:45;5.80;98.00
25937;DHT22;13733;51.178;4.450;2024-02-23T00:32:10;5.80;97.90
25937;DHT22;13733;51.178;4.450;2024-02-23T00:34:36;5.90;98.10
25937;DHT22;13733;51.178;4.450;2024-02-23T00:37:02;6.00;96.70
25937;DHT22;13733;51.178;4.450;2024-02-23T00:39:29;6.00;96.00
25937;DHT22;13733;51.178;4.450;2024-02-23T00:41:54;6.10;95.80
25937;DHT22;13733;51.178;4.450;2024-02-23T00:44:20;6.30;95.00
25937;DHT22;13733;51.178;4.450;2024-02-23T00:46:46;6.30;95.50
25937;DHT22;13733;51.178;4.450;2024-02-23T00:49:12;6.40;94.80
25937;DHT22;13733;51.178;4.450;2024-02-23T00:51:38;6.40;92.40
25937;DHT22;13733;51.178;4.450;2024-02-23T00:54:03;6.40;90.90
25937;DHT22;13733;51.178;4.450;2024-02-23T00:56:29;6.40;90.60
25937;DHT22;13733;51.178;4.450;2024-02-23T00:58:55;6.40;90.80
25937;DHT22;13733;51.178;4.450;2024-02-23T01:01:20;6.30;90.90
25937;DHT22;13733;51.178;4.450;2024-02-23T01:03:46;6.40;90.60
25937;DHT22;13733;51.178;4.450;2024-02-23T01:06:12;6.40;86.10
25937;DHT22;13733;51.178;4.450;2024-02-23T01:08:38;6.30;85.80
25937;DHT22;13733;51.178;4.450;2024-02-23T01:11:05;6.20;86.00
25937;DHT22;13733;51.178;4.450;2024-02-23T01:13:31;6.30;87.20
25937;DHT22;13733;51.178;4.450;2024-02-23T01:15:57;6.20;87.20
25937;DHT22;13733;51.178;4.450;2024-02-23T01:18:23;6.20;88.30
25937;DHT22;13733;51.178;4.450;2024-02-23T01:20:48;6.40;81.20
25937;DHT22;13733;51.178;4.450;2024-02-23T01:23:14;6.40;79.30
25937;DHT22;13733;51.178;4.450;2024-02-23T01:25:41;6.30;84.50
25937;DHT22;13733;51.178;4.450;2024-02-23T01:28:07;6.30;92.50
25937;DHT22;13733;51.178;4.450;2024-02-23T01:30:33;6.10;95.10
25937;DHT22;13733;51.178;4.450;2024-02-23T01:32:59;5.90;97.20
25937;DHT22;13733;51.178;4.450;2024-02-23T01:35:26;5.80;99.10
25937;DHT22;13733;51.178;4.450;2024-02-23T01:37:52;5.60;99.90
25937;DHT22;13733;51.178;4.450;2024-02-23T01:40:18;5.50;99.90
25937;DHT22;13733;51.178;4.450;2024-02-23T01:42:45;5.50;99.90
25937;DHT22;13733;51.178;4.450;2024-02-23T01:45:10;5.50;99.90
25937;DHT22;13733;51.178;4.450;2024-02-23T01:47:36;5.70;99.90
25937;DHT22;13733;51.178;4.450;2024-02-23T01:50:03;5.70;99.90
25937;DHT22;13733;51.178;4.450;2024-02-23T01:52:29;5.70;99.90
25937;DHT22;13733;51.178;4.450;2024-02-23T01:54:56;5.60;99.90
25937;DHT22;13733;51.178;4.450;2024-02-23T01:57:22;5.50;99.90
25937;DHT22;13733;51.178;4.450;2024-02-23T01:59:48;5.40;99.90
25937;DHT22;13733;51.178;4.450;2024-02-23T02:02:15;5.30;99.90
25937;DHT22;13733;51.178;4.450;2024-02-23T02:04:42;5.50;99.90
25937;DHT22;13733;51.178;4.450;2024-02-23T02:07:09;5.50;99.90
25937;DHT22;13733;51.178;4.450;2024-02-23T02:09:35;5.60;99.90
25937;DHT22;13733;51.178;4.450;2024-02-23T02:12:01;5.50;99.90
25937;DHT22;13733;51.178;4.450;2024-02-23T02:14:27;5.50;99.90
25937;DHT22;13733;51.178;4.450;2024-02-23T02:16:57;5.60;99.90
25937;DHT22;13733;51.178;4.450;2024-02-23T02:19:22;5.60;99.90
25937;DHT22;13733;51.178;4.450;2024-02-23T02:21:48;5.60;99.90
25937;DHT22;13733;51.178;4.450;2024-02-23T02:24:14;5.60;99.50
25937;DHT22;13733;51.178;4.450;2024-02-23T02:26:40;5.60;98.90
25937;DHT22;13733;51.178;4.450;2024-02-23T02:29:06;5.60;99.20
25937;DHT22;13733;51.178;4.450;2024-02-23T02:31:31;5.50;98.40
25937;DHT22;13733;51.178;4.450;2024-02-23T02:34:03;5.50;99.30
25937;DHT22;13733;51.178;4.450;2024-02-23T02:36:29;5.40;99.90
25937;DHT22;13733;51.178;4.450;2024-02-23T02:38:55;5.40;99.90
25937;DHT22;13733;51.178;4.450;2024-02-23T02:41:24;5.40;99.90
25937;DHT22;13733;51.178;4.450;2024-02-23T02:43:53;5.50;99.90
25937;DHT22;13733;51.178;4.450;2024-02-23T02:46:18;5.50;99.90
25937;DHT22;13733;51.178;4.450;2024-02-23T02:48:44;5.60;99.70
25937;DHT22;13733;51.178;4.450;2024-02-23T02:51:10;5.80;97.50
25937;DHT22;13733;51.178;4.450;2024-02-23T02:53:37;5.80;96.70
25937;DHT22;13733;51.178;4.450;2024-02-23T02:56:06;5.80;95.80
25937;DHT22;13733;51.178;4.450;2024-02-23T02:58:32;5.90;96.20
25937;DHT22;13733;51.178;4.450;2024-02-23T03:00:58;6.00;95.60
25937;DHT22;13733;51.178;4.450;2024-02-23T03:03:23;5.90;96.20
25937;DHT22;13733;51.178;4.450;2024-02-23T03:05:49;5.90;96.60
25937;DHT22;13733;51.178;4.450;2024-02-23T03:08:15;5.90;96.50
25937;DHT22;13733;51.178;4.450;2024-02-23T03:10:41;5.80;97.20
25937;DHT22;13733;51.178;4.450;2024-02-23T03:13:07;5.70;98.00
25937;DHT22;13733;51.178;4.450;2024-02-23T03:15:33;5.70;98.70
25937;DHT22;13733;51.178;4.450;2024-02-23T03:17:59;5.70;98.80
25937;DHT22;13733;51.178;4.450;2024-02-23T03:20:27;5.80;97.60
25937;DHT22;13733;51.178;4.450;2024-02-23T03:22:52;5.90;96.30
25937;DHT22;13733;51.178;4.450;2024-02-23T03:25:18;6.00;96.00
25937;DHT22;13733;51.178;4.450;2024-02-23T03:27:44;6.00;94.30
25937;DHT22;13733;51.178;4.450;2024-02-23T03:30:10;6.00;93.60
25937;DHT22;13733;51.178;4.450;2024-02-23T03:32:36;5.90;94.70
25937;DHT22;13733;51.178;4.450;2024-02-23T03:35:06;5.80;96.70
25937;DHT22;13733;51.178;4.450;2024-02-23T03:37:33;5.90;96.00
25937;DHT22;13733;51.178;4.450;2024-02-23T03:39:58;5.80;95.70
25937;DHT22;13733;51.178;4.450;2024-02-23T03:42:25;6.00;95.50
25937;DHT22;13733;51.178;4.450;2024-02-23T03:44:52;5.90;95.40
25937;DHT22;13733;51.178;4.450;2024-02-23T03:47:18;5.90;95.40
25937;DHT22;13733;51.178;4.450;2024-02-23T03:49:43;5.90;95.90
25937;DHT22;13733;51.178;4.450;2024-02-23T03:52:09;5.90;94.70
25937;DHT22;13733;51.178;4.450;2024-02-23T03:54:35;5.90;94.90
25937;DHT22;13733;51.178;4.450;2024-02-23T03:57:01;6.00;95.10
25937;DHT22;13733;51.178;4.450;2024-02-23T03:59:27;6.00;93.70
25937;DHT22;13733;51.178;4.450;2024-02-23T04:01:53;6.00;93.40
25937;DHT22;13733;51.178;4.450;2024-02-23T04:04:19;6.10;92.30
25937;DHT22;13733;51.178;4.450;2024-02-23T04:06:45;6.00;92.70
25937;DHT22;13733;51.178;4.450;2024-02-23T04:09:11;6.00;93.30
25937;DHT22;13733;51.178;4.450;2024-02-23T04:11:36;6.10;93.60
25937;DHT22;13733;51.178;4.450;2024-02-23T04:14:03;6.10;93.00
25937;DHT22;13733;51.178;4.450;2024-02-23T04:16:31;6.20;92.30
25937;DHT22;13733;51.178;4.450;2024-02-23T04:18:57;6.20;91.70
25937;DHT22;13733;51.178;4.450;2024-02-23T04:21:25;6.20;90.90
25937;DHT22;13733;51.178;4.450;2024-02-23T04:23:51;6.20;91.50
25937;DHT22;13733;51.178;4.450;2024-02-23T04:26:17;6.40;87.00
25937;DHT22;13733;51.178;4.450;2024-02-23T04:28:43;6.40;88.40
25937;DHT22;13733;51.178;4.450;2024-02-23T04:31:09;6.50;88.20
25937;DHT22;13733;51.178;4.450;2024-02-23T04:33:36;6.40;86.30
25937;DHT22;13733;51.178;4.450;2024-02-23T04:36:03;6.40;87.40
25937;DHT22;13733;51.178;4.450;2024-02-23T04:38:30;6.30;86.70
25937;DHT22;13733;51.178;4.450;2024-02-23T04:40:56;6.40;87.20
25937;DHT22;13733;51.178;4.450;2024-02-23T04:43:22;6.20;88.10
25937;DHT22;13733;51.178;4.450;2024-02-23T04:45:48;6.20;90.30
25937;DHT22;13733;51.178;4.450;2024-02-23T04:48:14;6.20;87.30
25937;DHT22;13733;51.178;4.450;2024-02-23T04:50:40;6.30;87.30
25937;DHT22;13733;51.178;4.450;2024-02-23T04:53:06;6.30;88.00
25937;DHT22;13733;51.178;4.450;2024-02-23T04:55:33;6.30;90.10
25937;DHT22;13733;51.178;4.450;2024-02-23T04:57:59;6.20;89.60
25937;DHT22;13733;51.178;4.450;2024-02-23T05:00:25;6.20;90.70
25937;DHT22;13733;51.178;4.450;2024-02-23T05:02:58;6.30;90.20
25937;DHT22;13733;51.178;4.450;2024-02-23T05:05:24;6.20;88.90
25937;DHT22;13733;51.178;4.450;2024-02-23T05:07:50;6.20;87.80
25937;DHT22;13733;51.178;4.450;2024-02-23T05:10:16;6.20;87.40
25937;DHT22;13733;51.178;4.450;2024-02-23T05:12:42;6.30;88.10
25937;DHT22;13733;51.178;4.450;2024-02-23T05:15:08;6.40;85.70
25937;DHT22;13733;51.178;4.450;2024-02-23T05:17:34;6.40;81.70
25937;DHT22;13733;51.178;4.450;2024-02-23T05:20:00;6.50;79.50
25937;DHT22;13733;51.178;4.450;2024-02-23T05:22:26;6.60;75.30
25937;DHT22;13733;51.178;4.450;2024-02-23T05:24:52;6.40;78.90
25937;DHT22;13733;51.178;4.450;2024-02-23T05:27:17;6.30;82.80
25937;DHT22;13733;51.178;4.450;2024-02-23T05:29:43;6.30;82.20
25937;DHT22;13733;51.178;4.450;2024-02-23T05:32:09;6.40;81.20
25937;DHT22;13733;51.178;4.450;2024-02-23T05:34:36;6.40;80.00
25937;DHT22;13733;51.178;4.450;2024-02-23T05:37:02;6.40;78.00
25937;DHT22;13733;51.178;4.450;2024-02-23T05:39:28;6.40;76.80
25937;DHT22;13733;51.178;4.450;2024-02-23T05:41:54;6.60;74.90
25937;DHT22;13733;51.178;4.450;2024-02-23T05:44:20;6.60;69.10
25937;DHT22;13733;51.178;4.450;2024-02-23T05:46:47;6.60;75.40
25937;DHT22;13733;51.178;4.450;2024-02-23T05:49:13;6.50;74.80
25937;DHT22;13733;51.178;4.450;2024-02-23T05:51:39;6.60;72.30
25937;DHT22;13733;51.178;4.450;2024-02-23T05:54:06;6.50;70.00
25937;DHT22;13733;51.178;4.450;2024-02-23T05:56:32;6.50;73.20
25937;DHT22;13733;51.178;4.450;2024-02-23T05:58:57;6.50;71.10
25937;DHT22;13733;51.178;4.450;2024-02-23T06:01:24;6.40;67.00
25937;DHT22;13733;51.178;4.450;2024-02-23T06:03:50;6.40;65.70
25937;DHT22;13733;51.178;4.450;2024-02-23T06:06:16;6.40;67.30
25937;DHT22;13733;51.178;4.450;2024-02-23T06:08:42;6.50;62.20
25937;DHT22;13733;51.178;4.450;2024-02-23T06:11:09;6.50;64.00
25937;DHT22;13733;51.178;4.450;2024-02-23T06:13:35;6.40;61.60
25937;DHT22;13733;51.178;4.450;2024-02-23T06:16:01;6.50;58.20
25937;DHT22;13733;51.178;4.450;2024-02-23T06:18:27;6.50;62.20
25937;DHT22;13733;51.178;4.450;2024-02-23T06:20:53;6.50;64.10
25937;DHT22;13733;51.178;4.450;2024-02-23T06:23:19;6.40;63.70
25937;DHT22;13733;51.178;4.450;2024-02-23T06:25:47;6.50;59.90
25937;DHT22;13733;51.178;4.450;2024-02-23T06:28:13;6.40;58.40
25937;DHT22;13733;51.178;4.450;2024-02-23T06:30:38;6.40;60.40
25937;DHT22;13733;51.178;4.450;2024-02-23T06:33:05;6.40;64.20
25937;DHT22;13733;51.178;4.450;2024-02-23T06:35:31;6.40;64.20
25937;DHT22;13733;51.178;4.450;2024-02-23T06:37:57;6.50;59.90
25937;DHT22;13733;51.178;4.450;2024-02-23T06:40:24;6.50;56.00
25937;DHT22;13733;51.178;4.450;2024-02-23T06:42:50;6.50;57.60
25937;DHT22;13733;51.178;4.450;2024-02-23T06:45:16;6.60;55.70
25937;DHT22;13733;51.178;4.450;2024-02-23T06:47:44;6.60;59.10
25937;DHT22;13733;51.178;4.450;2024-02-23T06:50:10;6.60;62.50
25937;DHT22;13733;51.178;4.450;2024-02-23T06:52:36;6.70;58.50
25937;DHT22;13733;51.178;4.450;2024-02-23T06:55:03;6.80;55.50
25937;DHT22;13733;51.178;4.450;2024-02-23T06:57:29;6.80;56.60
25937;DHT22;13733;51.178;4.450;2024-02-23T06:59:56;6.80;57.30
25937;DHT22;13733;51.178;4.450;2024-02-23T07:02:23;6.80;55.70
25937;DHT22;13733;51.178;4.450;2024-02-23T07:04:49;6.70;59.00
25937;DHT22;13733;51.178;4.450;2024-02-23T07:07:14;6.90;55.10
25937;DHT22;13733;51.178;4.450;2024-02-23T07:09:40;6.80;61.00
25937;DHT22;13733;51.178;4.450;2024-02-23T07:12:06;6.80;62.60
25937;DHT22;13733;51.178;4.450;2024-02-23T07:14:32;6.80;60.80
25937;DHT22;13733;51.178;4.450;2024-02-23T07:16:58;6.80;62.30
25937;DHT22;13733;51.178;4.450;2024-02-23T07:19:24;6.90;60.30
25937;DHT22;13733;51.178;4.450;2024-02-23T07:21:50;6.90;56.70
25937;DHT22;13733;51.178;4.450;2024-02-23T07:24:15;6.90;59.90
25937;DHT22;13733;51.178;4.450;2024-02-23T07:26:41;6.90;57.30
25937;DHT22;13733;51.178;4.450;2024-02-23T07:29:07;6.80;61.20
25937;DHT22;13733;51.178;4.450;2024-02-23T07:31:33;6.90;59.80
25937;DHT22;13733;51.178;4.450;2024-02-23T07:33:58;6.90;61.80
25937;DHT22;13733;51.178;4.450;2024-02-23T07:36:24;6.90;58.90
25937;DHT22;13733;51.178;4.450;2024-02-23T07:38:50;6.90;61.20
25937;DHT22;13733;51.178;4.450;2024-02-23T07:41:16;7.00;60.20
25937;DHT22;13733;51.178;4.450;2024-02-23T07:43:45;7.10;58.90
25937;DHT22;13733;51.178;4.450;2024-02-23T07:46:12;7.20;56.20
25937;DHT22;13733;51.178;4.450;2024-02-23T07:48:38;7.20;54.80
25937;DHT22;13733;51.178;4.450;2024-02-23T07:51:05;7.20;53.80
25937;DHT22;13733;51.178;4.450;2024-02-23T07:53:30;7.20;55.50
25937;DHT22;13733;51.178;4.450;2024-02-23T07:55:57;7.30;51.80
25937;DHT22;13733;51.178;4.450;2024-02-23T07:58:25;7.30;52.60
25937;DHT22;13733;51.178;4.450;2024-02-23T08:00:54;7.30;56.30
25937;DHT22;13733;51.178;4.450;2024-02-23T08:03:20;7.40;49.80
25937;DHT22;13733;51.178;4.450;2024-02-23T08:05:45;7.50;48.30
25937;DHT22;13733;51.178;4.450;2024-02-23T08:08:11;7.50;49.40
25937;DHT22;13733;51.178;4.450;2024-02-23T08:10:37;7.60;46.60
25937;DHT22;13733;51.178;4.450;2024-02-23T08:13:04;7.50;48.40
25937;DHT22;13733;51.178;4.450;2024-02-23T08:15:29;7.50;55.40
25937;DHT22;13733;51.178;4.450;2024-02-23T08:17:55;7.50;62.10
25937;DHT22;13733;51.178;4.450;2024-02-23T08:20:22;7.30;74.20
25937;DHT22;13733;51.178;4.450;2024-02-23T08:22:49;7.10;83.60
25937;DHT22;13733;51.178;4.450;2024-02-23T08:25:15;6.90;92.60
25937;DHT22;13733;51.178;4.450;2024-02-23T08:27:42;6.80;96.30
25937;DHT22;13733;51.178;4.450;2024-02-23T08:30:08;6.60;99.20
25937;DHT22;13733;51.178;4.450;2024-02-23T08:32:35;6.80;99.00
25937;DHT22;13733;51.178;4.450;2024-02-23T08:35:01;6.70;98.90
25937;DHT22;13733;51.178;4.450;2024-02-23T08:37:28;6.50;99.90
25937;DHT22;13733;51.178;4.450;2024-02-23T08:39:54;6.60;99.90
25937;DHT22;13733;51.178;4.450;2024-02-23T08:42:20;6.60;99.90
25937;DHT22;13733;51.178;4.450;2024-02-23T08:44:46;6.60;98.50
25937;DHT22;13733;51.178;4.450;2024-02-23T08:47:11;6.70;98.60
25937;DHT22;13733;51.178;4.450;2024-02-23T08:49:37;6.80;98.80
25937;DHT22;13733;51.178;4.450;2024-02-23T08:52:03;6.80;95.30
25937;DHT22;13733;51.178;4.450;2024-02-23T08:54:29;6.90;94.10
25937;DHT22;13733;51.178;4.450;2024-02-23T08:56:56;6.70;95.50
25937;DHT22;13733;51.178;4.450;2024-02-23T08:59:22;6.50;97.50
25937;DHT22;13733;51.178;4.450;2024-02-23T09:01:48;6.50;98.70
25937;DHT22;13733;51.178;4.450;2024-02-23T09:04:14;6.60;99.20
25937;DHT22;13733;51.178;4.450;2024-02-23T09:06:39;6.70;99.10
25937;DHT22;13733;51.178;4.450;2024-02-23T09:09:05;6.70;97.40
25937;DHT22;13733;51.178;4.450;2024-02-23T09:11:31;6.90;96.30
25937;DHT22;13733;51.178;4.450;2024-02-23T09:13:56;6.80;96.00
25937;DHT22;13733;51.178;4.450;2024-02-23T09:16:22;6.90;95.70
25937;DHT22;13733;51.178;4.450;2024-02-23T09:18:50;6.90;95.70
25937;DHT22;13733;51.178;4.450;2024-02-23T09:21:16;7.00;95.10
25937;DHT22;13733;51.178;4.450;2024-02-23T09:23:42;6.90;94.90
25937;DHT22;13733;51.178;4.450;2024-02-23T09:26:10;7.20;91.40
25937;DHT22;13733;51.178;4.450;2024-02-23T09:28:37;7.40;88.60
25937;DHT22;13733;51.178;4.450;2024-02-23T09:31:02;7.40;86.40
25937;DHT22;13733;51.178;4.450;2024-02-23T09:33:30;7.40;87.00
25937;DHT22;13733;51.178;4.450;2024-02-23T09:35:57;7.40;89.50
25937;DHT22;13733;51.178;4.450;2024-02-23T09:38:22;7.60;84.80
25937;DHT22;13733;51.178;4.450;2024-02-23T09:40:51;7.60;81.30
25937;DHT22;13733;51.178;4.450;2024-02-23T09:43:17;7.70;77.60
25937;DHT22;13733;51.178;4.450;2024-02-23T09:45:44;7.90;74.40
25937;DHT22;13733;51.178;4.450;2024-02-23T09:48:10;7.90;68.80
25937;DHT22;13733;51.178;4.450;2024-02-23T09:50:37;7.80;71.00
25937;DHT22;13733;51.178;4.450;2024-02-23T09:53:04;7.80;74.30
25937;DHT22;13733;51.178;4.450;2024-02-23T09:55:34;8.00;67.80
25937;DHT22;13733;51.178;4.450;2024-02-23T09:58:00;8.20;62.90
25937;DHT22;13733;51.178;4.450;2024-02-23T10:00:27;8.30;61.10
25937;DHT22;13733;51.178;4.450;2024-02-23T10:02:53;8.30;62.60
25937;DHT22;13733;51.178;4.450;2024-02-23T10:05:23;8.30;55.00
25937;DHT22;13733;51.178;4.450;2024-02-23T10:07:54;8.10;56.20
25937;DHT22;13733;51.178;4.450;2024-02-23T10:10:33;8.30;52.10
25937;DHT22;13733;51.178;4.450;2024-02-23T10:13:00;8.10;58.90
25937;DHT22;13733;51.178;4.450;2024-02-23T10:15:28;8.30;55.90
25937;DHT22;13733;51.178;4.450;2024-02-23T10:17:54;8.40;54.90
25937;DHT22;13733;51.178;4.450;2024-02-23T10:20:20;8.50;41.80
25937;DHT22;13733;51.178;4.450;2024-02-23T10:22:46;8.40;44.90
25937;DHT22;13733;51.178;4.450;2024-02-23T10:25:12;8.20;54.00
25937;DHT22;13733;51.178;4.450;2024-02-23T10:27:38;8.40;52.00
25937;DHT22;13733;51.178;4.450;2024-02-23T10:30:07;8.40;48.60
25937;DHT22;13733;51.178;4.450;2024-02-23T10:32:37;8.40;47.10
25937;DHT22;13733;51.178;4.450;2024-02-23T10:35:05;8.40;47.20
25937;DHT22;13733;51.178;4.450;2024-02-23T10:37:34;8.40;52.80
25937;DHT22;13733;51.178;4.450;2024-02-23T10:40:00;8.60;48.30
25937;DHT22;13733;51.178;4.450;2024-02-23T10:42:32;8.60;48.00
25937;DHT22;13733;51.178;4.450;2024-02-23T10:44:59;8.60;43.90
25937;DHT22;13733;51.178;4.450;2024-02-23T10:47:27;8.80;44.80
25937;DHT22;13733;51.178;4.450;2024-02-23T10:49:54;8.80;42.00
25937;DHT22;13733;51.178;4.450;2024-02-23T10:52:22;8.90;36.30
25937;DHT22;13733;51.178;4.450;2024-02-23T10:54:50;8.70;41.00
25937;DHT22;13733;51.178;4.450;2024-02-23T10:57:18;8.60;45.10
25937;DHT22;13733;51.178;4.450;2024-02-23T10:59:48;8.70;47.20
25937;DHT22;13733;51.178;4.450;2024-02-23T11:02:19;8.70;51.80
25937;DHT22;13733;51.178;4.450;2024-02-23T11:04:47;8.80;45.10
25937;DHT22;13733;51.178;4.450;2024-02-23T11:07:19;8.60;50.20
25937;DHT22;13733;51.178;4.450;2024-02-23T11:09:58;8.80;50.20
25937;DHT22;13733;51.178;4.450;2024-02-23T11:12:25;9.00;39.40
25937;DHT22;13733;51.178;4.450;2024-02-23T11:14:56;9.00;41.20
25937;DHT22;13733;51.178;4.450;2024-02-23T11:17:22;9.20;34.50
25937;DHT22;13733;51.178;4.450;2024-02-23T11:19:50;9.20;32.60
25937;DHT22;13733;51.178;4.450;2024-02-23T11:22:27;9.30;29.10
25937;DHT22;13733;51.178;4.450;2024-02-23T11:25:00;9.40;30.00
25937;DHT22;13733;51.178;4.450;2024-02-23T11:27:30;9.60;12.70
25937;DHT22;13733;51.178;4.450;2024-02-23T11:30:05;10.10;7.70
25937;DHT22;13733;51.178;4.450;2024-02-23T11:32:37;10.70;1.00
25937;DHT22;13733;51.178;4.450;2024-02-23T11:35:07;11.10;1.00
25937;DHT22;13733;51.178;4.450;2024-02-23T11:40:13;11.40;1.00
25937;DHT22;13733;51.178;4.450;2024-02-23T11:42:43;11.80;1.00
25937;DHT22;13733;51.178;4.450;2024-02-23T11:45:09;12.00;1.00
25937;DHT22;13733;51.178;4.450;2024-02-23T11:47:37;11.40;1.00
25937;DHT22;13733;51.178;4.450;2024-02-23T11:50:10;11.30;1.00
25937;DHT22;13733;51.178;4.450;2024-02-23T11:52:40;11.30;1.00
25937;DHT22;13733;51.178;4.450;2024-02-23T11:55:06;11.00;1.00
25937;DHT22;13733;51.178;4.450;2024-02-23T11:57:34;10.30;1.00
25937;DHT22;13733;51.178;4.450;2024-02-23T12:00:04;10.10;1.00
25937;DHT22;13733;51.178;4.450;2024-02-23T12:02:32;10.00;1.00
25937;DHT22;13733;51.178;4.450;2024-02-23T12:04:58;9.90;1.00
25937;DHT22;13733;51.178;4.450;2024-02-23T12:07:24;9.80;1.00
25937;DHT22;13733;51.178;4.450;2024-02-23T12:09:52;9.80;1.00
25937;DHT22;13733;51.178;4.450;2024-02-23T12:12:18;9.90;1.00
25937;DHT22;13733;51.178;4.450;2024-02-23T12:14:44;10.00;1.00
25937;DHT22;13733;51.178;4.450;2024-02-23T12:17:10;10.10;1.00
25937;DHT22;13733;51.178;4.450;2024-02-23T12:19:39;10.10;1.00
25937;DHT22;13733;51.178;4.450;2024-02-23T12:22:09;10.30;1.00
25937;DHT22;13733;51.178;4.450;2024-02-23T12:24:35;10.30;1.00
25937;DHT22;13733;51.178;4.450;2024-02-23T12:27:01;10.10;1.00
25937;DHT22;13733;51.178;4.450;2024-02-23T12:29:27;9.90;1.00
25937;DHT22;13733;51.178;4.450;2024-02-23T12:32:04;9.90;1.00
25937;DHT22;13733;51.178;4.450;2024-02-23T12:34:30;9.80;1.00
25937;DHT22;13733;51.178;4.450;2024-02-23T12:36:55;9.90;1.00
25937;DHT22;13733;51.178;4.450;2024-02-23T12:39:21;10.00;1.00
25937;DHT22;13733;51.178;4.450;2024-02-23T12:41:47;9.90;1.00
25937;DHT22;13733;51.178;4.450;2024-02-23T12:44:12;9.80;1.00
25937;DHT22;13733;51.178;4.450;2024-02-23T12:46:39;10.00;1.00
25937;DHT22;13733;51.178;4.450;2024-02-23T12:49:04;9.90;1.00
25937;DHT22;13733;51.178;4.450;2024-02-23T12:51:30;9.90;1.00
25937;DHT22;13733;51.178;4.450;2024-02-23T12:53:56;9.60;1.00
25937;DHT22;13733;51.178;4.450;2024-02-23T12:56:22;9.60;1.00
25937;DHT22;13733;51.178;4.450;2024-02-23T12:58:48;9.80;1.00
25937;DHT22;13733;51.178;4.450;2024-02-23T13:01:13;9.70;1.00
25937;DHT22;13733;51.178;4.450;2024-02-23T13:03:40;9.60;1.00
25937;DHT22;13733;51.178;4.450;2024-02-23T13:06:08;9.70;1.00
25937;DHT22;13733;51.178;4.450;2024-02-23T13:08:34;9.70;1.00
25937;DHT22;13733;51.178;4.450;2024-02-23T13:11:01;9.80;1.00
25937;DHT22;13733;51.178;4.450;2024-02-23T13:13:27;10.10;1.00
25937;DHT22;13733;51.178;4.450;2024-02-23T13:15:54;10.40;1.00
25937;DHT22;13733;51.178;4.450;2024-02-23T13:18:20;10.30;1.00
25937;DHT22;13733;51.178;4.450;2024-02-23T13:20:46;10.70;99.90
25937;DHT22;13733;51.178;4.450;2024-02-23T13:23:12;10.70;1.00
25937;DHT22;13733;51.178;4.450;2024-02-23T13:25:38;10.50;1.00
25937;DHT22;13733;51.178;4.450;2024-02-23T13:28:05;10.30;1.00
25937;DHT22;13733;51.178;4.450;2024-02-23T13:30:31;10.20;1.00
25937;DHT22;13733;51.178;4.450;2024-02-23T13:32:57;10.10;1.00
25937;DHT22;13733;51.178;4.450;2024-02-23T13:35:23;9.90;1.00
25937;DHT22;13733;51.178;4.450;2024-02-23T13:37:49;10.00;1.00
25937;DHT22;13733;51.178;4.450;2024-02-23T13:40:15;10.00;1.00
25937;DHT22;13733;51.178;4.450;2024-02-23T13:42:41;10.00;1.00
25937;DHT22;13733;51.178;4.450;2024-02-23T13:45:08;10.10;1.00
25937;DHT22;13733;51.178;4.450;2024-02-23T13:47:37;10.50;1.00
25937;DHT22;13733;51.178;4.450;2024-02-23T13:50:02;10.60;99.90
25937;DHT22;13733;51.178;4.450;2024-02-23T13:52:30;10.40;99.90
25937;DHT22;13733;51.178;4.450;2024-02-23T13:54:56;10.40;99.90
25937;DHT22;13733;51.178;4.450;2024-02-23T13:57:22;10.50;99.90
25937;DHT22;13733;51.178;4.450;2024-02-23T13:59:48;10.60;99.90
25937;DHT22;13733;51.178;4.450;2024-02-23T14:02:14;10.30;99.90
25937;DHT22;13733;51.178;4.450;2024-02-23T14:04:40;10.30;99.90
25937;DHT22;13733;51.178;4.450;2024-02-23T14:07:07;10.30;99.90
25937;DHT22;13733;51.178;4.450;2024-02-23T14:09:33;10.60;99.90
25937;DHT22;13733;51.178;4.450;2024-02-23T14:11:58;10.60;99.90
25937;DHT22;13733;51.178;4.450;2024-02-23T14:14:24;10.70;99.90
25937;DHT22;13733;51.178;4.450;2024-02-23T14:16:50;10.90;99.90
25937;DHT22;13733;51.178;4.450;2024-02-23T14:19:16;11.10;99.90
25937;DHT22;13733;51.178;4.450;2024-02-23T14:21:42;11.00;99.90
25937;DHT22;13733;51.178;4.450;2024-02-23T14:24:08;10.90;99.90
25937;DHT22;13733;51.178;4.450;2024-02-23T14:26:33;10.80;99.90
25937;DHT22;13733;51.178;4.450;2024-02-23T14:28:59;10.60;99.90
25937;DHT22;13733;51.178;4.450;2024-02-23T14:31:25;10.50;99.90
25937;DHT22;13733;51.178;4.450;2024-02-23T14:33:51;10.50;99.90
25937;DHT22;13733;51.178;4.450;2024-02-23T14:36:18;10.40;99.90
25937;DHT22;13733;51.178;4.450;2024-02-23T14:38:44;10.30;99.90
25937;DHT22;13733;51.178;4.450;2024-02-23T14:41:11;10.20;99.90
25937;DHT22;13733;51.178;4.450;2024-02-23T14:43:37;10.30;99.90
25937;DHT22;13733;51.178;4.450;2024-02-23T14:46:03;10.50;99.90
25937;DHT22;13733;51.178;4.450;2024-02-23T14:48:30;10.60;99.90
25937;DHT22;13733;51.178;4.450;2024-02-23T14:50:56;10.50;99.90
25937;DHT22;13733;51.178;4.450;2024-02-23T14:53:23;10.30;99.90
25937;DHT22;13733;51.178;4.450;2024-02-23T14:55:49;10.30;99.90
25937;DHT22;13733;51.178;4.450;2024-02-23T14:58:15;10.60;99.90
25937;DHT22;13733;51.178;4.450;2024-02-23T15:00:41;10.60;99.90
25937;DHT22;13733;51.178;4.450;2024-02-23T15:03:06;10.50;99.90
25937;DHT22;13733;51.178;4.450;2024-02-23T15:05:34;10.40;99.90
25937;DHT22;13733;51.178;4.450;2024-02-23T15:08:00;10.30;99.90
25937;DHT22;13733;51.178;4.450;2024-02-23T15:10:26;10.30;99.90
25937;DHT22;13733;51.178;4.450;2024-02-23T15:12:53;10.40;99.90
25937;DHT22;13733;51.178;4.450;2024-02-23T15:15:19;10.90;99.90
25937;DHT22;13733;51.178;4.450;2024-02-23T15:17:45;12.20;1.00
25937;DHT22;13733;51.178;4.450;2024-02-23T15:20:12;13.50;1.00
25937;DHT22;13733;51.178;4.450;2024-02-23T15:22:38;14.60;99.90
25937;DHT22;13733;51.178;4.450;2024-02-23T15:25:09;14.70;57.60
25937;DHT22;13733;51.178;4.450;2024-02-23T15:27:37;13.80;99.90
25937;DHT22;13733;51.178;4.450;2024-02-23T15:30:06;13.80;1.00
25937;DHT22;13733;51.178;4.450;2024-02-23T15:32:40;13.50;99.90
25937;DHT22;13733;51.178;4.450;2024-02-23T15:35:06;13.30;99.90
25937;DHT22;13733;51.178;4.450;2024-02-23T15:37:32;12.10;99.90
25937;DHT22;13733;51.178;4.450;2024-02-23T15:39:58;11.60;99.90
25937;DHT22;13733;51.178;4.450;2024-02-23T15:42:23;11.40;99.90